createdAt,value
2023-05-15T00:01:29.353Z,70.80
2023-05-15T00:06:38.630Z,72.60
2023-05-15T00:11:47.747Z,72.60
2023-05-15T00:16:56.953Z,71.70
2023-05-15T00:22:05.628Z,71.00
2023-05-15T00:27:14.468Z,71.80
2023-05-15T00:32:22.830Z,72.60
2023-05-15T00:37:31.673Z,72.20
2023-05-15T00:42:40.110Z,73.10
2023-05-15T00:47:49.010Z,72.30
2023-05-15T00:52:57.610Z,72.10
2023-05-15T00:58:06.645Z,71.90
2023-05-15T01:03:15.223Z,72.10
2023-05-15T01:08:24.374Z,72.70
2023-05-15T01:13:33.378Z,72.70
2023-05-15T01:18:42.341Z,72.50
2023-05-15T01:23:50.966Z,72.10
2023-05-15T01:29:00.388Z,71.90
2023-05-15T01:34:09.404Z,73.60
2023-05-15T01:39:18.110Z,74.30
2023-05-15T01:44:26.731Z,73.80
2023-05-15T01:49:35.598Z,73.40
2023-05-15T01:54:44.319Z,72.80
2023-05-15T01:59:53.632Z,72.90
2023-05-15T02:05:02.131Z,73.50
2023-05-15T02:10:10.904Z,73.50
2023-05-15T02:15:19.753Z,73.00
2023-05-15T02:20:28.970Z,74.10
2023-05-15T02:25:37.365Z,73.80
2023-05-15T02:30:46.288Z,73.50
2023-05-15T02:35:55.002Z,73.20
2023-05-15T02:41:04.132Z,73.40
2023-05-15T02:46:12.682Z,73.30
2023-05-15T02:51:21.162Z,74.20
2023-05-15T02:56:29.825Z,74.30
2023-05-15T03:01:38.711Z,73.70
2023-05-15T03:06:47.114Z,75.70
2023-05-15T03:11:56.602Z,75.80
2023-05-15T03:17:05.810Z,76.60
2023-05-15T03:22:14.384Z,75.60
2023-05-15T03:27:22.723Z,75.80
2023-05-15T03:32:31.858Z,77.30
2023-05-15T03:37:40.638Z,78.40
2023-05-15T03:42:49.839Z,78.80
2023-05-15T03:47:58.468Z,77.60
2023-05-15T03:53:07.356Z,77.70
2023-05-15T03:58:16.047Z,76.80
2023-05-15T04:03:25.371Z,77.00
2023-05-15T04:08:33.780Z,76.20
2023-05-15T04:13:42.342Z,74.80
2023-05-15T04:18:51.441Z,73.40
2023-05-15T04:24:00.416Z,72.80
2023-05-15T04:29:09.258Z,71.40
2023-05-15T04:34:18.680Z,69.10
2023-05-15T04:39:27.301Z,69.90
2023-05-15T04:44:36.044Z,69.00
2023-05-15T04:49:44.513Z,70.20
2023-05-15T04:54:53.954Z,68.00
2023-05-15T05:00:02.293Z,66.40
2023-05-15T05:05:11.514Z,65.40
2023-05-15T05:10:20.117Z,64.80
2023-05-15T05:15:29.035Z,62.70
2023-05-15T05:20:37.737Z,62.30
2023-05-15T05:25:47.029Z,62.70
2023-05-15T05:30:55.543Z,60.60
2023-05-15T05:36:04.180Z,59.20
2023-05-15T05:41:12.746Z,59.40
2023-05-15T05:46:21.938Z,59.80
2023-05-15T05:51:30.471Z,59.20
2023-05-15T05:56:39.423Z,57.20
2023-05-15T06:01:48.232Z,58.00
2023-05-15T06:06:57.137Z,57.10
2023-05-15T06:12:05.806Z,55.60
2023-05-15T06:17:15.239Z,56.20
2023-05-15T06:22:23.655Z,55.40
2023-05-15T06:27:32.433Z,54.80
2023-05-15T06:32:41.725Z,53.50
2023-05-15T06:37:51.346Z,53.60
2023-05-15T06:43:00.185Z,54.00
2023-05-15T06:48:09.185Z,52.20
2023-05-15T06:53:18.334Z,50.70
2023-05-15T06:58:27.319Z,51.80
2023-05-15T07:03:35.639Z,50.80
2023-05-15T07:08:44.579Z,51.40
2023-05-15T07:13:53.201Z,50.90
2023-05-15T07:19:01.960Z,50.40
2023-05-15T07:24:10.477Z,50.10
2023-05-15T07:29:19.624Z,49.90
2023-05-15T07:34:28.247Z,49.40
2023-05-15T07:39:37.218Z,49.50
2023-05-15T07:44:47.858Z,48.80
2023-05-15T07:49:54.224Z,48.70
2023-05-15T07:55:02.989Z,47.50
2023-05-15T08:00:11.744Z,48.40
2023-05-15T08:05:20.225Z,46.10
2023-05-15T08:10:29.026Z,45.30
2023-05-15T08:15:37.538Z,43.60
2023-05-15T08:20:46.182Z,44.50
2023-05-15T08:25:54.736Z,43.50
2023-05-15T08:31:03.303Z,44.90
2023-05-15T08:36:12.340Z,42.70
2023-05-15T08:41:29.112Z,42.50
2023-05-15T08:46:29.601Z,44.70
2023-05-15T08:51:38.646Z,44.60
2023-05-15T08:56:47.073Z,42.50
2023-05-15T09:01:56.305Z,42.40
2023-05-15T09:07:05.138Z,42.20
2023-05-15T09:12:14.877Z,41.10
2023-05-15T09:17:23.379Z,39.90
2023-05-15T09:22:32.510Z,38.90
2023-05-15T09:27:41.236Z,41.30
2023-05-15T09:32:50.084Z,42.30
2023-05-15T09:37:58.619Z,41.70
2023-05-15T09:43:07.658Z,42.80
2023-05-15T09:48:16.756Z,39.90
2023-05-15T09:53:26.130Z,38.40
2023-05-15T09:58:34.940Z,35.90
2023-05-15T10:03:43.517Z,37.40
2023-05-15T10:08:52.392Z,37.70
2023-05-15T10:14:01.725Z,37.50
2023-05-15T10:19:10.516Z,34.60
2023-05-15T10:24:19.330Z,36.20
2023-05-15T10:29:28.507Z,36.40
2023-05-15T10:34:37.548Z,36.40
2023-05-15T10:39:46.083Z,38.30
2023-05-15T10:44:54.856Z,37.20
2023-05-15T10:50:03.371Z,39.30
2023-05-15T10:55:12.058Z,40.10
2023-05-15T11:00:21.144Z,39.80
2023-05-15T11:05:30.307Z,40.10
2023-05-15T11:10:39.073Z,36.70
2023-05-15T11:15:49.099Z,39.50
2023-05-15T11:20:47.180Z,37.40
2023-05-15T11:25:57.002Z,36.00
2023-05-15T11:31:05.590Z,36.60
2023-05-15T11:36:14.044Z,34.40
2023-05-15T11:41:22.742Z,36.50
2023-05-15T11:46:32.496Z,34.60
2023-05-15T11:51:41.306Z,36.20
2023-05-15T11:56:50.436Z,36.40
2023-05-15T12:01:59.865Z,36.70
2023-05-15T12:07:09.300Z,35.80
2023-05-15T12:12:18.029Z,34.00
2023-05-15T12:17:27.299Z,36.50
2023-05-15T12:22:35.746Z,36.00
2023-05-15T12:27:45.111Z,33.30
2023-05-15T12:32:53.567Z,35.00
2023-05-15T12:38:02.993Z,36.30
2023-05-15T12:43:11.623Z,36.30
2023-05-15T12:48:20.374Z,36.90
2023-05-15T12:53:29.073Z,37.50
2023-05-15T12:58:38.176Z,37.60
2023-05-15T13:03:47.139Z,36.50
2023-05-15T13:08:56.591Z,37.40
2023-05-15T13:14:05.316Z,37.00
2023-05-15T13:19:14.105Z,37.00
2023-05-15T13:24:22.973Z,36.30
2023-05-15T13:29:31.762Z,37.90
2023-05-15T13:34:40.295Z,36.40
2023-05-15T13:39:49.188Z,34.80
2023-05-15T13:44:58.275Z,35.10
2023-05-15T13:50:07.387Z,35.00
2023-05-15T13:55:16.398Z,35.30
2023-05-15T14:00:25.436Z,35.00
2023-05-15T14:05:34.126Z,35.70
2023-05-15T14:10:43.025Z,34.50
2023-05-15T14:15:51.707Z,34.10
2023-05-15T14:21:00.772Z,34.80
2023-05-15T14:26:09.507Z,35.10
2023-05-15T14:31:18.107Z,35.60
2023-05-15T14:36:27.081Z,35.70
2023-05-15T14:41:36.221Z,34.10
2023-05-15T14:46:44.972Z,35.70
2023-05-15T14:51:53.771Z,33.90
2023-05-15T14:57:02.453Z,35.00
2023-05-15T15:02:11.505Z,35.50
2023-05-15T15:07:20.233Z,36.80
2023-05-15T15:12:28.864Z,38.70
2023-05-15T15:17:37.318Z,39.50
2023-05-15T15:22:46.805Z,39.10
2023-05-15T15:27:55.332Z,38.80
2023-05-15T15:33:04.009Z,37.80
2023-05-15T15:38:12.482Z,36.90
2023-05-15T15:43:21.107Z,38.40
2023-05-15T15:48:29.879Z,37.40
2023-05-15T15:53:39.040Z,38.60
2023-05-15T15:58:48.315Z,38.60
2023-05-15T16:03:57.661Z,40.70
2023-05-15T16:09:06.342Z,41.20
2023-05-15T16:14:15.616Z,43.50
2023-05-15T16:19:24.157Z,41.10
2023-05-15T16:24:33.128Z,40.60
2023-05-15T16:29:41.473Z,40.90
2023-05-15T16:34:50.244Z,40.30
2023-05-15T16:39:59.058Z,40.20
2023-05-15T16:45:08.020Z,40.90
2023-05-15T16:50:16.633Z,40.10
2023-05-15T16:55:25.403Z,40.60
2023-05-15T17:00:33.860Z,42.60
2023-05-15T17:05:43.811Z,42.40
2023-05-15T17:10:52.920Z,42.80
2023-05-15T17:16:02.065Z,43.80
2023-05-15T17:21:10.540Z,43.90
2023-05-15T17:26:20.844Z,45.10
2023-05-15T17:31:19.433Z,45.10
2023-05-15T17:36:28.840Z,46.10
2023-05-15T17:41:37.435Z,46.90
2023-05-15T17:46:46.523Z,46.80
2023-05-15T17:51:55.201Z,47.00
2023-05-15T17:57:04.603Z,48.80
2023-05-15T18:02:13.592Z,48.90
2023-05-15T18:07:22.151Z,49.60
2023-05-15T18:12:31.318Z,49.80
2023-05-15T18:17:40.517Z,50.40
2023-05-15T18:22:49.228Z,50.70
2023-05-15T18:27:58.158Z,51.30
2023-05-15T18:33:07.074Z,52.00
2023-05-15T18:38:15.883Z,51.40
2023-05-15T18:43:24.231Z,51.30
2023-05-15T18:48:33.360Z,52.40
2023-05-15T18:53:42.086Z,52.70
2023-05-15T18:58:51.348Z,52.40
2023-05-15T19:04:00.070Z,53.00
2023-05-15T19:09:09.570Z,52.90
2023-05-15T19:14:18.134Z,53.30
2023-05-15T19:19:26.869Z,53.40
2023-05-15T19:24:35.061Z,53.20
2023-05-15T19:40:03.482Z,54.20
2023-05-15T19:55:11.668Z,54.20
2023-05-15T20:00:20.384Z,54.50
2023-05-15T20:05:28.600Z,55.20
2023-05-15T20:15:46.022Z,55.20
2023-05-15T20:20:54.880Z,55.30
2023-05-15T20:26:03.912Z,55.30
2023-05-15T20:31:12.478Z,55.50
2023-05-15T20:36:21.076Z,55.70
2023-05-15T20:41:30.314Z,56.00
2023-05-15T20:46:38.801Z,56.00
2023-05-15T20:51:47.539Z,56.10
2023-05-15T20:56:56.145Z,56.20
2023-05-15T21:02:04.636Z,56.40
2023-05-15T21:07:12.980Z,56.20
2023-05-15T21:12:21.826Z,56.70
2023-05-15T21:17:30.846Z,56.60
2023-05-15T21:22:40.102Z,56.50
2023-05-15T21:27:48.616Z,56.20
2023-05-15T21:32:57.361Z,56.10
2023-05-15T21:38:05.861Z,55.90
2023-05-15T21:43:14.387Z,55.40
2023-05-15T21:48:23.256Z,55.40
2023-05-15T21:53:32.184Z,55.80
2023-05-15T21:58:40.885Z,55.80
2023-05-15T22:03:49.676Z,55.10
2023-05-15T22:08:58.229Z,55.30
2023-05-15T22:14:07.147Z,55.30
2023-05-15T22:19:28.952Z,55.50
2023-05-15T22:24:23.820Z,54.80
2023-05-15T22:29:32.104Z,55.10
2023-05-15T22:34:40.870Z,55.30
2023-05-15T22:39:49.366Z,56.20
2023-05-15T22:44:58.809Z,55.70
2023-05-15T22:50:07.111Z,55.70
2023-05-15T22:55:15.697Z,55.60
2023-05-15T23:00:24.088Z,56.10
2023-05-15T23:05:32.619Z,56.00
2023-05-15T23:10:40.896Z,56.10
2023-05-15T23:15:49.650Z,56.10
2023-05-15T23:20:58.504Z,55.90
2023-05-15T23:26:07.105Z,56.10
2023-05-15T23:31:15.360Z,56.00
2023-05-15T23:36:24.215Z,56.10
2023-05-15T23:41:32.762Z,56.10
2023-05-15T23:46:41.920Z,56.60
2023-05-15T23:51:50.586Z,56.70
2023-05-15T23:56:59.599Z,56.10
